Time;durP1;ratioP1;P1;durP2;ratioP2;P2;SDS_P1;SDS_P2;PMS_P1;PMS_P2;Temp;Humidity;BMP_temperature;BMP_pressure;BME280_temperature;BME280_humidity;BME280_pressure;Samples;Min_cycle;Max_cycle;Signal;HPM_P1;HPM_P2
2021/06/18 00:02:16;;;;;;;33.20;29.10;;;20.60;84.90;;;;;;5017095;28;20389;-53
2021/06/18 00:04:42;;;;;;;32.38;29.05;;;20.60;84.80;;;;;;4983465;28;20457;-53
2021/06/18 00:07:09;;;;;;;33.90;29.00;;;20.60;84.90;;;;;;5001132;28;20405;-52
2021/06/18 00:09:36;;;;;;;33.25;29.60;;;20.60;85.00;;;;;;5016908;28;20041;-53
2021/06/18 00:12:03;;;;;;;39.05;32.30;;;20.60;85.40;;;;;;5012021;28;20041;-53
2021/06/18 00:14:29;;;;;;;34.53;29.85;;;20.60;85.60;;;;;;5011994;28;20418;-53
2021/06/18 00:16:54;;;;;;;33.15;29.65;;;20.50;85.80;;;;;;5011592;28;20052;-52
2021/06/18 00:19:20;;;;;;;34.80;30.98;;;20.50;85.70;;;;;;5016404;28;20121;-51
2021/06/18 00:21:46;;;;;;;35.67;31.60;;;20.40;86.00;;;;;;5009162;28;20042;-50
2021/06/18 00:24:11;;;;;;;36.17;32.13;;;20.50;86.50;;;;;;5010868;28;20054;-53
2021/06/18 00:26:37;;;;;;;33.83;30.15;;;20.40;86.30;;;;;;4990184;28;20046;-52
2021/06/18 00:29:04;;;;;;;35.63;30.55;;;20.30;86.40;;;;;;4979043;28;20069;-54
2021/06/18 00:31:30;;;;;;;32.78;29.35;;;20.30;86.50;;;;;;5009774;28;20045;-50
2021/06/18 00:33:55;;;;;;;36.40;32.05;;;20.30;86.40;;;;;;5014447;28;20045;-51
2021/06/18 00:36:21;;;;;;;37.03;30.85;;;20.30;86.20;;;;;;5010628;28;20474;-51
2021/06/18 00:38:46;;;;;;;38.45;33.88;;;20.30;86.30;;;;;;5013555;28;20041;-50
2021/06/18 00:41:14;;;;;;;37.63;33.58;;;20.30;86.50;;;;;;5008499;28;20452;-52
2021/06/18 00:43:43;;;;;;;37.72;33.70;;;20.40;86.70;;;;;;4999812;28;20054;-52
2021/06/18 00:46:10;;;;;;;35.72;32.00;;;20.50;86.30;;;;;;4996075;28;20061;-51
2021/06/18 00:48:36;;;;;;;37.90;33.72;;;20.40;86.20;;;;;;5011263;28;20052;-51
2021/06/18 00:51:03;;;;;;;40.70;34.53;;;20.20;86.70;;;;;;5010812;28;20041;-52
2021/06/18 00:53:29;;;;;;;40.50;34.17;;;20.20;87.30;;;;;;5011652;28;20042;-52
2021/06/18 00:55:55;;;;;;;36.40;32.50;;;20.20;87.00;;;;;;5010362;28;20104;-50
2021/06/18 00:58:21;;;;;;;38.75;34.47;;;20.20;87.10;;;;;;5011739;28;20042;-51
2021/06/18 01:00:49;;;;;;;38.92;33.88;;;20.20;87.40;;;;;;5010400;28;20502;-52
2021/06/18 01:03:15;;;;;;;37.40;33.78;;;20.20;87.10;;;;;;5011097;28;20054;-50
2021/06/18 01:05:42;;;;;;;37.35;33.25;;;20.30;87.30;;;;;;5007754;28;20034;-51
2021/06/18 01:08:20;;;;;;;39.20;34.28;;;20.20;86.90;;;;;;4987937;28;20030;-53
2021/06/18 01:10:58;;;;;;;36.97;32.97;;;20.10;87.60;;;;;;4972140;28;20058;-50
2021/06/18 01:13:45;;;;;;;37.85;33.67;;;20.10;87.40;;;;;;4996938;28;20145;-53
2021/06/18 01:16:22;;;;;;;41.10;34.92;;;20.10;87.70;;;;;;4990312;28;20495;-52
2021/06/18 01:19:04;;;;;;;36.80;32.88;;;20.10;87.50;;;;;;4984638;28;20525;-51
2021/06/18 01:21:39;;;;;;;37.58;32.80;;;20.10;87.50;;;;;;4973983;28;20030;-53
2021/06/18 01:24:29;;;;;;;37.40;33.50;;;20.00;87.40;;;;;;4974634;28;20105;-53
2021/06/18 01:27:17;;;;;;;35.55;30.35;;;20.00;87.50;;;;;;5011817;28;20070;-50
2021/06/18 01:29:57;;;;;;;33.40;29.75;;;20.00;87.30;;;;;;4963481;28;20401;-54
2021/06/18 01:32:31;;;;;;;34.50;30.70;;;20.00;87.10;;;;;;5007664;28;20045;-51
2021/06/18 01:34:58;;;;;;;34.65;30.88;;;20.00;87.10;;;;;;4977210;28;20049;-53
2021/06/18 01:37:27;;;;;;;35.70;31.65;;;20.00;87.10;;;;;;5004114;28;20038;-50
2021/06/18 01:39:54;;;;;;;35.05;31.33;;;19.90;87.10;;;;;;4991847;28;20061;-51
2021/06/18 01:42:22;;;;;;;34.30;30.58;;;19.80;87.30;;;;;;5000362;28;20089;-50
2021/06/18 01:44:49;;;;;;;37.28;31.98;;;19.80;87.50;;;;;;4976470;28;20501;-51
2021/06/18 01:47:16;;;;;;;36.10;32.30;;;19.80;87.50;;;;;;4999736;28;20581;-49
2021/06/18 01:49:46;;;;;;;37.47;33.58;;;19.80;87.70;;;;;;4979247;28;20418;-49
2021/06/18 01:52:14;;;;;;;38.15;34.15;;;19.80;87.80;;;;;;4985099;28;20064;-51
2021/06/18 01:54:43;;;;;;;40.13;35.00;;;19.80;88.20;;;;;;5005757;28;20089;-50
2021/06/18 01:57:12;;;;;;;41.22;35.30;;;19.80;88.60;;;;;;5001597;28;20050;-52
2021/06/18 01:59:39;;;;;;;40.38;34.50;;;19.80;88.50;;;;;;5000722;28;20052;-53
2021/06/18 02:02:06;;;;;;;40.17;34.10;;;19.80;88.80;;;;;;4993788;28;20038;-52
2021/06/18 02:04:34;;;;;;;41.50;35.90;;;19.70;88.70;;;;;;5004138;28;20045;-52
2021/06/18 02:07:05;;;;;;;40.08;35.85;;;19.70;89.10;;;;;;5008982;28;20495;-51
2021/06/18 02:09:33;;;;;;;41.58;36.92;;;19.70;89.00;;;;;;4994487;28;20038;-50
2021/06/18 02:11:59;;;;;;;40.47;36.08;;;19.70;89.00;;;;;;4994139;28;20467;-52
2021/06/18 02:14:29;;;;;;;41.78;37.38;;;19.70;88.80;;;;;;4999389;28;20058;-53
2021/06/18 02:16:57;;;;;;;44.22;38.03;;;19.60;89.00;;;;;;4995603;28;20054;-49
2021/06/18 02:19:23;;;;;;;42.47;37.92;;;19.50;89.40;;;;;;5006991;28;20078;-51
2021/06/18 02:21:52;;;;;;;41.67;37.17;;;19.60;89.80;;;;;;4994658;28;20517;-49
2021/06/18 02:24:20;;;;;;;44.17;37.35;;;19.50;89.50;;;;;;4993497;28;20042;-50
2021/06/18 02:26:47;;;;;;;39.63;35.25;;;19.60;89.70;;;;;;4995477;28;20050;-52
2021/06/18 02:29:14;;;;;;;41.83;35.30;;;19.50;89.50;;;;;;4997302;28;20089;-51
2021/06/18 02:31:41;;;;;;;43.88;35.60;;;19.50;90.00;;;;;;4994289;28;20042;-51
2021/06/18 02:34:08;;;;;;;41.75;37.25;;;19.50;89.50;;;;;;4977266;28;20038;-51
2021/06/18 02:36:35;;;;;;;42.00;37.45;;;19.50;89.70;;;;;;4967315;28;20056;-49
2021/06/18 02:39:01;;;;;;;43.03;36.80;;;19.50;89.70;;;;;;5013763;28;20044;-52
2021/06/18 02:41:26;;;;;;;45.45;39.97;;;19.50;89.60;;;;;;4998690;28;20042;-51
2021/06/18 02:43:52;;;;;;;45.85;38.78;;;19.60;90.00;;;;;;5005092;28;20070;-51
2021/06/18 02:46:46;;;;;;;46.35;41.13;;;19.60;89.90;;;;;;4995638;28;20482;-51
2021/06/18 02:49:15;;;;;;;45.53;39.58;;;19.60;89.60;;;;;;5001440;28;20442;-52
2021/06/18 02:51:51;;;;;;;48.30;42.03;;;19.50;90.00;;;;;;5005901;28;20422;-50
2021/06/18 02:54:27;;;;;;;46.20;40.13;;;19.60;89.30;;;;;;4991970;28;20506;-51
2021/06/18 02:56:59;;;;;;;48.38;40.50;;;19.50;89.50;;;;;;4993570;28;20046;-51
2021/06/18 02:59:31;;;;;;;48.70;41.15;;;19.40;89.90;;;;;;4956895;28;20062;-52
2021/06/18 03:02:00;;;;;;;49.08;43.53;;;19.40;90.10;;;;;;5010175;28;20038;-51
2021/06/18 03:04:28;;;;;;;46.58;41.47;;;19.50;90.00;;;;;;4999820;28;20137;-52
2021/06/18 03:06:58;;;;;;;50.88;41.90;;;19.40;90.10;;;;;;4971257;28;20062;-48
2021/06/18 03:09:32;;;;;;;48.50;42.47;;;19.30;90.10;;;;;;5002442;28;20121;-51
2021/06/18 03:11:59;;;;;;;51.88;42.72;;;19.30;90.10;;;;;;5005557;28;20165;-52
2021/06/18 03:14:29;;;;;;;47.90;42.60;;;19.30;90.20;;;;;;4993028;28;20097;-51
2021/06/18 03:17:00;;;;;;;52.20;44.77;;;19.30;90.30;;;;;;5002944;28;20121;-51
2021/06/18 03:19:45;;;;;;;57.15;44.58;;;19.40;90.10;;;;;;4975590;28;20514;-51
2021/06/18 03:22:15;;;;;;;52.20;44.13;;;19.40;90.00;;;;;;5000785;28;20499;-51
2021/06/18 03:24:44;;;;;;;49.30;43.97;;;19.40;90.00;;;;;;4992233;28;20137;-50
2021/06/18 03:27:11;;;;;;;52.03;44.22;;;19.30;90.10;;;;;;4988820;28;20051;-49
2021/06/18 03:29:38;;;;;;;50.60;42.58;;;19.20;90.10;;;;;;4992567;28;20042;-51
2021/06/18 03:32:06;;;;;;;51.05;44.13;;;19.20;90.20;;;;;;4992439;28;20467;-48
2021/06/18 03:34:33;;;;;;;52.45;43.35;;;19.20;90.10;;;;;;4992970;28;20042;-52
2021/06/18 03:37:01;;;;;;;49.90;44.60;;;19.20;90.30;;;;;;4980752;28;20484;-48
2021/06/18 03:39:28;;;;;;;50.53;43.70;;;19.30;90.30;;;;;;4979619;28;20042;-48
2021/06/18 03:41:55;;;;;;;51.63;43.63;;;19.20;90.30;;;;;;4992704;28;20042;-49
2021/06/18 03:44:21;;;;;;;57.30;46.70;;;19.20;90.30;;;;;;4992935;28;20088;-48
2021/06/18 03:46:47;;;;;;;52.63;45.60;;;19.30;90.30;;;;;;4993055;28;20506;-51
2021/06/18 03:49:13;;;;;;;53.33;47.38;;;19.20;90.20;;;;;;4992684;28;20100;-52
2021/06/18 03:51:40;;;;;;;54.90;46.40;;;19.20;90.50;;;;;;4992592;28;20046;-52
2021/06/18 03:54:07;;;;;;;56.00;47.92;;;19.30;90.50;;;;;;4992859;28;20039;-52
2021/06/18 03:56:35;;;;;;;51.70;44.67;;;19.20;90.40;;;;;;4992117;28;20050;-52
2021/06/18 03:59:02;;;;;;;52.38;45.25;;;19.20;90.40;;;;;;4992863;28;20391;-49
2021/06/18 04:01:28;;;;;;;58.13;46.67;;;19.20;90.50;;;;;;4974741;28;20050;-54
2021/06/18 04:03:57;;;;;;;54.83;47.25;;;19.20;90.50;;;;;;4992999;28;20542;-52
2021/06/18 04:06:24;;;;;;;60.03;48.60;;;19.20;90.60;;;;;;4994193;28;20127;-53
2021/06/18 04:08:50;;;;;;;63.65;52.15;;;19.30;90.50;;;;;;5006789;28;20458;-50
2021/06/18 04:11:16;;;;;;;55.83;48.92;;;19.30;90.40;;;;;;4980378;28;20042;-52
2021/06/18 04:13:43;;;;;;;68.68;54.17;;;19.30;90.50;;;;;;4992250;28;20550;-52
2021/06/18 04:16:11;;;;;;;61.08;53.63;;;19.40;90.10;;;;;;4992990;28;20125;-51
2021/06/18 04:18:42;;;;;;;61.05;52.63;;;19.30;90.20;;;;;;4974333;28;20046;-51
2021/06/18 04:21:15;;;;;;;69.20;54.17;;;19.30;90.30;;;;;;4993459;28;20046;-50
2021/06/18 04:23:41;;;;;;;69.05;53.75;;;19.30;90.40;;;;;;4992382;28;20114;-51
2021/06/18 04:26:07;;;;;;;61.03;51.15;;;19.30;90.40;;;;;;4977294;28;20087;-50
2021/06/18 04:28:35;;;;;;;55.40;48.63;;;19.30;90.40;;;;;;4992466;28;20057;-53
2021/06/18 04:31:00;;;;;;;57.53;48.50;;;19.30;90.40;;;;;;4993719;28;20041;-51
2021/06/18 04:33:26;;;;;;;60.95;48.95;;;19.30;90.30;;;;;;4995688;28;20038;-50
2021/06/18 04:35:52;;;;;;;57.00;48.60;;;19.30;90.30;;;;;;4991245;28;20053;-52
2021/06/18 04:38:17;;;;;;;63.53;51.08;;;19.30;90.30;;;;;;4993101;28;20038;-49
2021/06/18 04:40:43;;;;;;;58.40;49.30;;;19.30;90.40;;;;;;4991453;28;20065;-50
2021/06/18 04:43:09;;;;;;;56.80;48.53;;;19.40;90.40;;;;;;4977371;28;20049;-52
2021/06/18 04:45:35;;;;;;;55.88;48.42;;;19.40;90.40;;;;;;4976223;28;20035;-51
2021/06/18 04:48:02;;;;;;;60.03;49.92;;;19.50;90.40;;;;;;4992820;28;20114;-52
2021/06/18 04:50:28;;;;;;;58.55;48.05;;;19.50;90.50;;;;;;4994279;28;20497;-49
2021/06/18 04:52:53;;;;;;;62.58;49.30;;;19.50;90.30;;;;;;4988768;28;20381;-49
2021/06/18 04:55:19;;;;;;;61.08;50.28;;;19.50;90.30;;;;;;4977620;28;20042;-52
2021/06/18 04:57:47;;;;;;;64.38;49.83;;;19.50;90.30;;;;;;4993704;28;20506;-52
2021/06/18 05:00:14;;;;;;;59.00;50.03;;;19.50;90.20;;;;;;5006529;28;20487;-49
2021/06/18 05:02:40;;;;;;;64.60;50.17;;;19.50;90.20;;;;;;4993860;28;20092;-51
2021/06/18 05:05:07;;;;;;;60.78;48.83;;;19.60;90.20;;;;;;4995138;28;20105;-50
2021/06/18 05:07:33;;;;;;;58.22;48.03;;;19.60;90.20;;;;;;4997471;28;20137;-50
2021/06/18 05:09:58;;;;;;;62.20;49.60;;;19.70;90.10;;;;;;5014475;28;20038;-50
2021/06/18 05:12:24;;;;;;;58.65;47.67;;;19.70;90.10;;;;;;5014194;28;20049;-52
2021/06/18 05:14:50;;;;;;;52.53;46.00;;;19.70;90.10;;;;;;4994692;28;20120;-51
2021/06/18 05:17:16;;;;;;;56.15;46.95;;;19.80;90.00;;;;;;4995968;28;20045;-51
2021/06/18 05:19:42;;;;;;;55.72;47.08;;;19.80;90.00;;;;;;5013209;28;20049;-53
2021/06/18 05:22:08;;;;;;;55.40;48.03;;;19.80;90.00;;;;;;4994703;28;20050;-53
2021/06/18 05:24:33;;;;;;;58.33;48.40;;;19.80;90.00;;;;;;5011924;28;20045;-54
2021/06/18 05:27:00;;;;;;;57.22;47.47;;;19.90;90.00;;;;;;5012242;28;20100;-49
2021/06/18 05:29:28;;;;;;;58.10;47.08;;;19.80;90.00;;;;;;5013284;28;20418;-52
2021/06/18 05:31:54;;;;;;;54.88;45.45;;;19.90;90.10;;;;;;5003836;28;20042;-50
2021/06/18 05:34:20;;;;;;;56.70;44.80;;;19.90;89.80;;;;;;5010884;28;20038;-52
2021/06/18 05:36:45;;;;;;;52.97;45.45;;;19.90;89.80;;;;;;5006433;28;20520;-50
2021/06/18 05:39:13;;;;;;;54.47;43.72;;;20.00;89.90;;;;;;5005457;28;20157;-53
2021/06/18 05:41:39;;;;;;;53.30;44.65;;;20.00;90.00;;;;;;5012546;28;20080;-51
2021/06/18 05:44:05;;;;;;;51.75;44.13;;;20.00;89.90;;;;;;5007943;28;20478;-52
2021/06/18 05:46:31;;;;;;;53.10;44.63;;;20.00;89.90;;;;;;5006290;28;20049;-52
2021/06/18 05:48:58;;;;;;;58.92;47.53;;;20.00;89.90;;;;;;5014238;28;20041;-50
2021/06/18 05:51:24;;;;;;;61.00;49.72;;;19.90;90.10;;;;;;5015713;28;20421;-51
2021/06/18 05:53:50;;;;;;;59.30;47.70;;;19.80;90.20;;;;;;5001440;28;20581;-51
2021/06/18 05:56:16;;;;;;;56.97;48.58;;;19.90;90.20;;;;;;4995167;28;20457;-52
2021/06/18 05:58:42;;;;;;;53.30;44.53;;;19.80;90.40;;;;;;5021187;28;20038;-50
2021/06/18 06:01:07;;;;;;;57.92;47.10;;;19.90;90.20;;;;;;5017116;28;20057;-52
2021/06/18 06:03:33;;;;;;;50.08;44.63;;;20.00;90.10;;;;;;5014802;28;20110;-53
2021/06/18 06:06:00;;;;;;;54.17;45.30;;;19.90;90.10;;;;;;5012958;28;20138;-53
2021/06/18 06:08:26;;;;;;;54.45;45.72;;;20.00;89.70;;;;;;4997968;28;20092;-51
2021/06/18 06:10:52;;;;;;;51.03;45.45;;;20.00;89.90;;;;;;4984750;28;20073;-49
2021/06/18 06:13:19;;;;;;;50.53;43.92;;;20.00;89.50;;;;;;5018862;28;20107;-54
2021/06/18 06:15:46;;;;;;;55.95;43.88;;;20.10;89.60;;;;;;5008686;28;20499;-50
2021/06/18 06:18:13;;;;;;;49.92;42.90;;;20.10;89.60;;;;;;5017203;28;20046;-52
2021/06/18 06:20:42;;;;;;;50.20;41.72;;;20.30;89.30;;;;;;5012003;28;20038;-53
2021/06/18 06:23:10;;;;;;;48.38;41.83;;;20.30;89.10;;;;;;4976387;28;20090;-52
2021/06/18 06:25:36;;;;;;;48.28;39.90;;;20.30;89.10;;;;;;5012089;28;20072;-53
2021/06/18 06:28:02;;;;;;;45.95;38.47;;;20.50;88.50;;;;;;4992567;28;20065;-53
2021/06/18 06:30:28;;;;;;;45.60;39.13;;;20.70;86.40;;;;;;5018284;28;20049;-53
2021/06/18 06:32:55;;;;;;;48.15;38.75;;;20.70;86.80;;;;;;4998957;28;20058;-50
2021/06/18 06:35:22;;;;;;;48.78;39.75;;;20.70;87.40;;;;;;5005915;28;20050;-52
2021/06/18 06:37:47;;;;;;;47.60;40.30;;;20.80;86.90;;;;;;4994027;28;20092;-53
2021/06/18 06:40:15;;;;;;;47.28;40.35;;;20.70;86.60;;;;;;5024806;28;20048;-50
2021/06/18 06:42:43;;;;;;;48.10;39.97;;;20.70;87.50;;;;;;5005320;28;20448;-51
2021/06/18 06:45:10;;;;;;;46.40;41.30;;;20.70;88.00;;;;;;4990059;28;20138;-50
2021/06/18 06:47:35;;;;;;;45.83;39.90;;;20.60;88.20;;;;;;5011554;28;20069;-50
2021/06/18 06:50:02;;;;;;;42.10;37.55;;;20.60;88.10;;;;;;5019535;28;20434;-53
2021/06/18 06:52:27;;;;;;;44.45;39.65;;;20.70;88.40;;;;;;5018427;28;20042;-52
2021/06/18 06:54:53;;;;;;;43.90;38.80;;;20.90;87.40;;;;;;4998059;28;20443;-52
2021/06/18 06:57:20;;;;;;;45.65;36.50;;;20.90;87.80;;;;;;4981726;28;20762;-51
2021/06/18 06:59:46;;;;;;;41.90;35.85;;;20.90;87.80;;;;;;4982158;28;20088;-51
2021/06/18 07:02:12;;;;;;;38.90;34.65;;;21.00;86.90;;;;;;5016705;28;20050;-53
2021/06/18 07:04:38;;;;;;;41.05;34.75;;;20.90;87.30;;;;;;5015061;28;20033;-53
2021/06/18 07:07:04;;;;;;;39.83;33.90;;;20.90;87.00;;;;;;5015266;28;20133;-52
2021/06/18 07:09:32;;;;;;;38.13;33.28;;;21.00;86.00;;;;;;5016076;28;20064;-52
2021/06/18 07:12:00;;;;;;;37.67;33.63;;;21.10;86.60;;;;;;5016437;28;20122;-53
2021/06/18 07:14:26;;;;;;;39.15;34.05;;;21.20;86.20;;;;;;4995018;28;20099;-49
2021/06/18 07:16:52;;;;;;;39.60;34.08;;;21.30;85.40;;;;;;4998308;28;20607;-51
2021/06/18 07:19:18;;;;;;;37.65;33.60;;;21.20;85.90;;;;;;5005995;28;20112;-52
2021/06/18 07:21:47;;;;;;;38.53;33.33;;;21.30;85.80;;;;;;4992516;28;20491;-52
2021/06/18 07:24:13;;;;;;;43.30;34.63;;;21.30;85.60;;;;;;5012128;28;20137;-50
2021/06/18 07:26:39;;;;;;;39.47;34.28;;;21.20;86.10;;;;;;4998185;28;20066;-52
2021/06/18 07:29:04;;;;;;;39.72;34.22;;;21.20;86.40;;;;;;5015976;28;20125;-50
2021/06/18 07:31:31;;;;;;;41.42;34.58;;;21.20;86.00;;;;;;4971347;28;20054;-53
2021/06/18 07:33:57;;;;;;;39.00;33.35;;;21.20;86.30;;;;;;4979944;28;20057;-54
2021/06/18 07:36:25;;;;;;;38.33;34.15;;;21.30;86.60;;;;;;4988050;28;20050;-54
2021/06/18 07:38:51;;;;;;;38.47;33.63;;;21.50;85.20;;;;;;4986360;28;20041;-53
2021/06/18 07:41:16;;;;;;;39.55;34.03;;;21.70;84.60;;;;;;5023401;28;20044;-54
2021/06/18 07:43:42;;;;;;;38.83;33.50;;;21.60;85.70;;;;;;5007698;28;20041;-53
2021/06/18 07:46:08;;;;;;;37.38;31.77;;;21.80;83.90;;;;;;5005184;28;20557;-54
2021/06/18 07:48:33;;;;;;;44.63;34.45;;;21.90;83.30;;;;;;5002470;28;20042;-52
2021/06/18 07:51:00;;;;;;;37.20;33.15;;;21.90;83.50;;;;;;5004298;28;20035;-52
2021/06/18 07:53:26;;;;;;;41.88;34.90;;;21.80;84.30;;;;;;5006199;28;20038;-54
2021/06/18 07:55:53;;;;;;;37.72;33.08;;;21.80;85.10;;;;;;5000554;28;20049;-50
2021/06/18 07:58:19;;;;;;;41.42;34.25;;;22.00;84.90;;;;;;5004292;28;20045;-54
2021/06/18 08:00:44;;;;;;;38.30;32.85;;;22.10;83.90;;;;;;4991281;28;20060;-53
2021/06/18 08:03:10;;;;;;;37.28;33.28;;;22.10;84.50;;;;;;5015305;28;20080;-53
2021/06/18 08:05:36;;;;;;;37.50;33.47;;;22.10;83.60;;;;;;5011672;28;20073;-53
2021/06/18 08:08:02;;;;;;;37.85;32.65;;;22.20;83.30;;;;;;5003525;28;20574;-53
2021/06/18 08:10:27;;;;;;;37.38;33.45;;;22.30;83.10;;;;;;5008653;28;20046;-53
2021/06/18 08:12:53;;;;;;;37.15;33.10;;;22.30;83.30;;;;;;5002664;28;20069;-53
2021/06/18 08:15:19;;;;;;;34.92;31.23;;;22.50;81.20;;;;;;5006326;28;20510;-52
2021/06/18 08:17:48;;;;;;;40.53;32.70;;;22.60;80.80;;;;;;5014791;28;20044;-50
2021/06/18 08:20:16;;;;;;;36.28;31.63;;;22.60;81.60;;;;;;5012707;28;20037;-54
2021/06/18 08:22:42;;;;;;;37.38;31.98;;;22.60;81.90;;;;;;5011529;28;20034;-48
2021/06/18 08:25:09;;;;;;;36.13;28.42;;;22.60;82.30;;;;;;5015229;28;20034;-52
2021/06/18 08:27:35;;;;;;;33.40;29.92;;;22.60;80.90;;;;;;5012533;28;20042;-54
2021/06/18 08:30:01;;;;;;;32.75;29.10;;;22.70;80.30;;;;;;5018337;28;20109;-53
2021/06/18 08:32:27;;;;;;;33.70;29.50;;;22.70;81.00;;;;;;5006872;28;20545;-52
2021/06/18 08:34:53;;;;;;;32.03;28.35;;;22.80;81.30;;;;;;5011207;28;20181;-54
2021/06/18 08:37:18;;;;;;;31.27;26.23;;;23.00;80.20;;;;;;5009032;28;20042;-53
2021/06/18 08:39:45;;;;;;;31.40;27.42;;;23.10;79.50;;;;;;5013087;28;20041;-54
2021/06/18 08:42:11;;;;;;;29.42;26.50;;;23.30;79.00;;;;;;5006619;28;20132;-54
2021/06/18 08:44:37;;;;;;;29.90;23.98;;;23.40;78.30;;;;;;5025459;28;20065;-53
2021/06/18 08:47:04;;;;;;;26.63;23.88;;;23.50;79.20;;;;;;5016790;28;20113;-54
2021/06/18 08:49:30;;;;;;;28.77;25.75;;;23.70;76.50;;;;;;4983762;28;20041;-54
2021/06/18 08:51:57;;;;;;;26.88;23.85;;;23.80;75.50;;;;;;4997838;28;20077;-54
2021/06/18 08:54:41;;;;;;;29.85;23.45;;;23.90;75.30;;;;;;5011323;28;20494;-54
2021/06/18 08:57:07;;;;;;;27.73;24.67;;;23.90;75.60;;;;;;4998735;28;20129;-53
2021/06/18 08:59:33;;;;;;;28.13;24.92;;;24.00;75.10;;;;;;5015506;28;20057;-51
2021/06/18 09:01:59;;;;;;;25.80;22.70;;;24.00;76.40;;;;;;5015076;28;20046;-53
2021/06/18 09:04:24;;;;;;;25.73;22.55;;;24.10;77.40;;;;;;5015166;28;20573;-54
2021/06/18 09:07:00;;;;;;;24.75;22.17;;;24.20;76.70;;;;;;5015178;28;20042;-53
2021/06/18 09:09:34;;;;;;;26.42;23.15;;;24.30;75.80;;;;;;4997742;28;20041;-54
2021/06/18 09:12:03;;;;;;;26.20;22.83;;;24.40;73.50;;;;;;5013176;28;20069;-54
2021/06/18 09:14:40;;;;;;;26.67;22.13;;;24.40;75.10;;;;;;5012300;28;20049;-54
2021/06/18 09:17:12;;;;;;;24.52;21.90;;;24.50;74.10;;;;;;5013921;28;20511;-52
2021/06/18 09:19:46;;;;;;;22.98;19.70;;;24.50;73.60;;;;;;4996657;28;20134;-53
2021/06/18 09:22:15;;;;;;;21.42;19.15;;;24.60;72.60;;;;;;4997243;28;20045;-53
2021/06/18 09:24:44;;;;;;;21.17;18.98;;;24.40;74.30;;;;;;4995364;28;20390;-53
2021/06/18 09:27:11;;;;;;;23.48;20.98;;;24.30;74.70;;;;;;5014910;28;20421;-53
2021/06/18 09:29:36;;;;;;;29.45;23.95;;;24.30;75.40;;;;;;5022290;28;20033;-52
2021/06/18 09:32:09;;;;;;;27.17;23.58;;;24.30;75.70;;;;;;5024363;28;20125;-51
2021/06/18 09:34:42;;;;;;;25.98;23.08;;;24.30;75.80;;;;;;5009711;28;20050;-53
2021/06/18 09:37:30;;;;;;;26.83;23.88;;;24.30;76.90;;;;;;5016964;28;20124;-54
2021/06/18 09:39:57;;;;;;;23.83;21.33;;;24.30;76.50;;;;;;5011451;28;20113;-53
2021/06/18 09:42:24;;;;;;;22.95;19.60;;;24.30;77.00;;;;;;5013521;28;20034;-51
2021/06/18 09:45:04;;;;;;;18.40;16.52;;;24.40;76.80;;;;;;4994282;28;20053;-54
2021/06/18 09:47:29;;;;;;;20.67;14.85;;;24.50;73.90;;;;;;5001451;28;20046;-53
2021/06/18 09:49:55;;;;;;;19.85;15.60;;;24.60;73.60;;;;;;5006723;28;20042;-54
2021/06/18 09:52:23;;;;;;;16.08;14.43;;;24.80;73.30;;;;;;5006198;28;20050;-53
2021/06/18 09:54:52;;;;;;;16.92;14.18;;;24.70;74.50;;;;;;4973545;28;20056;-53
2021/06/18 09:57:20;;;;;;;16.92;12.02;;;24.70;73.90;;;;;;5006103;28;20414;-51
2021/06/18 10:00:02;;;;;;;14.25;12.85;;;24.80;73.50;;;;;;4994028;28;20077;-54
2021/06/18 10:02:43;;;;;;;12.85;11.57;;;24.80;72.70;;;;;;5019330;28;20092;-53
2021/06/18 10:05:18;;;;;;;15.23;12.05;;;24.90;71.30;;;;;;5012648;28;20050;-54
2021/06/18 10:07:45;;;;;;;12.30;11.00;;;24.90;71.90;;;;;;5014117;28;20128;-53
2021/06/18 10:10:19;;;;;;;11.18;9.30;;;24.90;71.30;;;;;;5012224;28;20041;-55
2021/06/18 10:12:45;;;;;;;13.65;9.55;;;25.00;70.30;;;;;;5002773;28;20045;-52
2021/06/18 10:15:14;;;;;;;12.35;9.13;;;25.00;69.80;;;;;;4998497;28;20038;-51
2021/06/18 10:17:41;;;;;;;13.18;10.55;;;25.00;70.20;;;;;;5013047;28;20064;-53
2021/06/18 10:20:09;;;;;;;13.98;11.45;;;24.90;70.90;;;;;;5016691;28;20053;-53
2021/06/18 10:22:54;;;;;;;16.52;12.65;;;24.90;71.10;;;;;;5019979;28;20409;-51
2021/06/18 10:25:28;;;;;;;16.83;12.95;;;24.90;71.00;;;;;;5016449;28;20042;-51
2021/06/18 10:27:55;;;;;;;13.25;11.77;;;24.90;72.20;;;;;;5019429;28;20092;-52
2021/06/18 10:30:31;;;;;;;14.88;9.85;;;25.00;71.30;;;;;;5003211;28;20037;-52
2021/06/18 10:33:00;;;;;;;9.68;8.20;;;25.10;70.70;;;;;;4994773;28;20064;-49
2021/06/18 10:36:09;;;;;;;11.05;8.07;;;25.10;69.60;;;;;;5025924;28;20038;-53
2021/06/18 10:38:40;;;;;;;8.07;6.47;;;25.20;68.60;;;;;;4919413;29;20230;-51
2021/06/18 10:41:18;;;;;;;8.23;6.80;;;25.30;67.00;;;;;;5008533;28;20045;-51
2021/06/18 10:43:47;;;;;;;9.15;7.35;;;25.30;68.00;;;;;;5014523;28;20041;-52
2021/06/18 10:46:28;;;;;;;10.15;7.80;;;25.30;68.60;;;;;;4994199;28;20512;-52
2021/06/18 10:48:55;;;;;;;10.13;7.85;;;25.40;68.70;;;;;;4993241;28;20125;-53
2021/06/18 10:51:30;;;;;;;9.93;7.70;;;25.50;68.30;;;;;;5007983;28;20046;-52
2021/06/18 10:54:03;;;;;;;10.88;7.70;;;25.50;68.30;;;;;;5009214;28;20057;-52
2021/06/18 10:56:46;;;;;;;11.30;7.28;;;25.50;68.00;;;;;;5017049;28;20050;-53
2021/06/18 10:59:12;;;;;;;11.52;7.43;;;25.50;66.30;;;;;;5021788;28;20041;-51
2021/06/18 11:01:39;;;;;;;11.20;6.95;;;25.60;67.40;;;;;;5025632;28;20042;-54
2021/06/18 11:04:07;;;;;;;9.77;7.60;;;25.70;66.70;;;;;;5022058;28;20057;-51
2021/06/18 11:06:48;;;;;;;10.52;7.88;;;25.70;67.90;;;;;;5011613;28;20046;-52
2021/06/18 11:09:45;;;;;;;10.98;8.15;;;25.70;68.00;;;;;;4989238;28;20135;-54
2021/06/18 11:12:53;;;;;;;8.93;7.07;;;25.60;68.40;;;;;;4994834;28;20069;-51
2021/06/18 11:15:21;;;;;;;8.65;6.75;;;25.70;67.70;;;;;;5012080;28;20088;-53
2021/06/18 11:18:10;;;;;;;8.25;6.80;;;25.80;68.90;;;;;;5010530;28;20037;-53
2021/06/18 11:20:36;;;;;;;6.70;5.95;;;26.10;67.00;;;;;;5005556;28;20042;-54
2021/06/18 11:23:13;;;;;;;8.85;5.45;;;26.20;67.00;;;;;;5004620;28;20457;-53
2021/06/18 11:25:43;;;;;;;10.48;6.38;;;26.30;67.00;;;;;;5008906;28;20508;-53
2021/06/18 11:28:21;;;;;;;10.88;6.20;;;26.50;65.50;;;;;;5011961;28;20567;-53
2021/06/18 11:30:56;;;;;;;8.50;6.30;;;26.60;64.80;;;;;;5011081;28;20040;-52
2021/06/18 11:33:46;;;;;;;9.05;6.70;;;26.60;63.10;;;;;;5012238;28;20054;-53
2021/06/18 11:36:16;;;;;;;7.10;5.43;;;26.60;64.50;;;;;;5022109;28;20060;-53
2021/06/18 11:38:47;;;;;;;6.72;5.38;;;26.60;63.40;;;;;;5020384;28;20045;-52
2021/06/18 11:41:17;;;;;;;7.20;5.10;;;26.70;64.30;;;;;;5011166;28;20124;-52
2021/06/18 11:43:42;;;;;;;9.52;6.20;;;26.80;64.90;;;;;;5006605;28;20115;-55
2021/06/18 11:46:09;;;;;;;10.57;6.97;;;26.90;64.40;;;;;;5007119;28;20490;-52
2021/06/18 11:48:35;;;;;;;9.95;7.60;;;26.90;62.60;;;;;;5030429;28;20033;-52
2021/06/18 11:51:02;;;;;;;10.52;7.28;;;27.00;63.00;;;;;;5023918;28;20080;-50
2021/06/18 11:53:39;;;;;;;8.55;6.40;;;27.00;61.90;;;;;;5020878;28;20041;-51
2021/06/18 11:56:07;;;;;;;8.93;7.18;;;27.10;64.50;;;;;;5024659;28;20071;-49
2021/06/18 11:58:38;;;;;;;8.50;6.60;;;27.00;63.70;;;;;;4990766;28;20078;-51
2021/06/18 12:01:31;;;;;;;11.15;6.70;;;27.10;63.50;;;;;;5014895;28;20553;-50
2021/06/18 12:04:01;;;;;;;8.10;6.55;;;27.10;65.10;;;;;;5013087;28;20236;-50
2021/06/18 12:06:34;;;;;;;7.50;6.30;;;27.20;64.80;;;;;;5010954;28;20056;-50
2021/06/18 12:09:16;;;;;;;8.93;6.22;;;27.30;63.70;;;;;;5012590;28;20084;-49
2021/06/18 12:11:53;;;;;;;9.98;6.95;;;27.40;63.00;;;;;;5013084;28;20034;-50
2021/06/18 12:14:18;;;;;;;9.55;6.43;;;27.60;62.20;;;;;;5006340;28;20038;-52
2021/06/18 12:16:46;;;;;;;8.15;6.80;;;27.60;60.60;;;;;;5002574;28;20046;-52
2021/06/18 12:19:17;;;;;;;9.82;7.82;;;27.60;62.10;;;;;;5005193;28;20046;-52
2021/06/18 12:21:54;;;;;;;10.40;7.32;;;27.70;61.80;;;;;;4998921;28;20117;-48
2021/06/18 12:24:34;;;;;;;11.73;7.60;;;27.70;62.70;;;;;;5005928;28;20038;-50
2021/06/18 12:27:01;;;;;;;10.45;7.50;;;27.80;62.70;;;;;;5010008;28;20046;-52
2021/06/18 12:29:30;;;;;;;9.40;8.05;;;27.80;61.80;;;;;;5012569;28;20065;-49
2021/06/18 12:32:00;;;;;;;11.60;8.70;;;27.90;61.20;;;;;;5012771;28;20052;-50
2021/06/18 12:34:28;;;;;;;14.05;7.80;;;28.00;60.70;;;;;;4995325;28;20072;-51
2021/06/18 12:37:06;;;;;;;12.07;8.90;;;28.00;61.00;;;;;;5013017;28;20497;-52
2021/06/18 12:39:49;;;;;;;9.02;7.75;;;28.00;60.60;;;;;;4994548;28;20075;-53
2021/06/18 12:42:23;;;;;;;11.20;7.72;;;28.10;60.50;;;;;;5018804;28;20054;-51